Time;durP1;ratioP1;P1;durP2;ratioP2;P2;SDS_P1;SDS_P2;PMS_P1;PMS_P2;Temp;Humidity;BMP_temperature;BMP_pressure;BME280_temperature;BME280_humidity;BME280_pressure;Samples;Min_cycle;Max_cycle;Signal;HPM_P1;HPM_P2
2021/08/09 00:00:28;;;;;;;6.68;3.22;;;13.90;99.90;;;;;;6273944;28;20141;-73
2021/08/09 00:03:30;;;;;;;6.90;2.75;;;13.90;99.90;;;;;;6273724;28;20048;-72
2021/08/09 00:06:31;;;;;;;9.50;3.10;;;13.90;99.90;;;;;;6273902;28;20505;-73
2021/08/09 00:09:33;;;;;;;3.08;2.83;;;13.90;99.90;;;;;;6273177;28;20170;-72
2021/08/09 00:12:35;;;;;;;3.60;2.22;;;13.90;99.90;;;;;;6273550;28;20118;-73
2021/08/09 00:15:38;;;;;;;6.30;3.63;;;13.90;99.90;;;;;;6273455;28;20051;-73
2021/08/09 00:18:45;;;;;;;18.27;3.42;;;13.80;99.90;;;;;;6273357;28;20098;-73
2021/08/09 00:21:47;;;;;;;3.90;2.70;;;13.80;99.90;;;;;;6273700;28;20426;-73
2021/08/09 00:24:49;;;;;;;3.88;2.65;;;13.80;99.90;;;;;;6273192;28;20132;-73
2021/08/09 00:27:51;;;;;;;9.60;2.85;;;13.70;99.90;;;;;;6273153;28;20051;-74
2021/08/09 00:30:54;;;;;;;5.32;2.95;;;13.70;99.90;;;;;;6273269;28;20102;-74
2021/08/09 00:33:56;;;;;;;14.18;5.05;;;13.60;99.90;;;;;;6272963;28;20073;-74
2021/08/09 00:36:57;;;;;;;11.35;4.15;;;13.60;99.90;;;;;;6272371;28;20045;-74
2021/08/09 00:39:59;;;;;;;3.20;2.53;;;13.60;99.90;;;;;;6274224;28;20072;-74
2021/08/09 00:43:02;;;;;;;4.25;3.20;;;13.50;99.90;;;;;;6297634;28;20049;-74
2021/08/09 00:46:05;;;;;;;6.32;2.78;;;13.50;99.90;;;;;;6297961;28;20490;-74
2021/08/09 00:49:07;;;;;;;3.72;2.90;;;13.50;99.90;;;;;;6297232;28;20045;-74
2021/08/09 00:52:10;;;;;;;7.28;2.53;;;13.40;99.90;;;;;;6297292;28;20517;-74
2021/08/09 00:55:12;;;;;;;4.53;2.42;;;13.30;99.90;;;;;;6297457;28;20414;-74
2021/08/09 00:58:14;;;;;;;8.75;2.67;;;13.20;99.90;;;;;;6299125;28;20131;-74
2021/08/09 01:01:17;;;;;;;6.88;3.33;;;13.20;99.90;;;;;;6298202;28;20514;-74
2021/08/09 01:04:19;;;;;;;5.65;3.22;;;13.20;99.90;;;;;;6298063;28;20565;-74
2021/08/09 01:07:23;;;;;;;5.57;2.45;;;13.20;99.90;;;;;;6298419;28;20519;-73
2021/08/09 01:10:29;;;;;;;4.78;2.72;;;13.10;99.90;;;;;;6298112;28;20086;-74
2021/08/09 01:13:36;;;;;;;6.10;3.20;;;13.10;99.90;;;;;;6296733;28;20044;-74
2021/08/09 01:16:42;;;;;;;3.65;2.78;;;13.00;99.90;;;;;;6296479;28;20407;-74
2021/08/09 01:20:07;;;;;;;4.50;3.08;;;13.00;99.90;;;;;;6296810;28;20068;-74
2021/08/09 01:23:20;;;;;;;2.88;2.58;;;12.90;99.90;;;;;;6296472;28;20036;-74
2021/08/09 01:26:35;;;;;;;3.22;2.80;;;12.90;99.90;;;;;;6297075;28;20195;-74
2021/08/09 01:29:44;;;;;;;6.95;3.22;;;12.80;99.90;;;;;;6296816;28;20051;-74
2021/08/09 01:32:47;;;;;;;8.82;3.28;;;12.80;99.90;;;;;;6296214;28;20131;-74
2021/08/09 01:35:53;;;;;;;3.35;2.42;;;12.80;99.90;;;;;;6296193;28;20044;-74
2021/08/09 01:38:55;;;;;;;3.42;2.83;;;12.70;99.90;;;;;;6296627;28;20051;-74
2021/08/09 01:41:57;;;;;;;3.55;2.42;;;12.70;99.90;;;;;;6296793;28;20055;-72
2021/08/09 01:45:01;;;;;;;3.35;2.85;;;12.70;99.90;;;;;;6296173;28;20525;-72
2021/08/09 01:48:03;;;;;;;2.40;2.20;;;12.60;99.90;;;;;;6296304;28;20072;-73
2021/08/09 01:51:06;;;;;;;5.05;2.90;;;12.60;99.90;;;;;;6296512;28;20040;-72
2021/08/09 01:54:08;;;;;;;6.20;3.38;;;12.70;99.90;;;;;;6296306;28;20407;-73
2021/08/09 01:57:10;;;;;;;3.08;2.45;;;12.60;99.90;;;;;;6295857;28;20052;-72
2021/08/09 02:00:16;;;;;;;7.65;2.72;;;12.60;99.90;;;;;;6295695;28;20502;-73
2021/08/09 02:03:18;;;;;;;3.05;2.65;;;12.60;99.90;;;;;;6295843;28;20529;-72
2021/08/09 02:06:20;;;;;;;3.35;2.88;;;12.60;99.90;;;;;;6296640;28;20105;-73
2021/08/09 02:09:22;;;;;;;2.72;2.53;;;12.60;99.90;;;;;;6295836;28;20047;-73
2021/08/09 02:12:24;;;;;;;3.17;2.50;;;12.50;99.90;;;;;;6295937;28;20135;-73
2021/08/09 02:15:37;;;;;;;6.63;3.22;;;12.60;99.90;;;;;;6296085;28;20036;-73
2021/08/09 02:18:44;;;;;;;25.85;3.55;;;12.50;99.90;;;;;;6296093;28;20048;-73
2021/08/09 02:21:51;;;;;;;5.00;4.38;;;12.50;99.90;;;;;;6296631;28;20052;-73
2021/08/09 02:24:58;;;;;;;5.03;2.80;;;12.50;99.90;;;;;;6295898;28;20418;-72
2021/08/09 02:28:08;;;;;;;4.15;3.20;;;12.50;99.90;;;;;;6295638;28;20045;-72
2021/08/09 02:31:12;;;;;;;7.45;2.85;;;12.50;99.90;;;;;;6296038;28;20049;-72
2021/08/09 02:34:17;;;;;;;3.90;2.97;;;12.50;99.90;;;;;;6296060;28;20139;-72
2021/08/09 02:37:19;;;;;;;3.97;2.50;;;12.50;99.90;;;;;;6295287;28;20388;-73
2021/08/09 02:40:21;;;;;;;2.67;2.40;;;12.50;99.90;;;;;;6295687;28;20123;-73
2021/08/09 02:43:24;;;;;;;7.35;2.63;;;12.50;99.90;;;;;;6295773;28;20236;-72
2021/08/09 02:46:28;;;;;;;7.93;2.75;;;12.50;99.90;;;;;;6295905;28;20052;-72
2021/08/09 02:49:30;;;;;;;6.32;3.05;;;12.50;99.90;;;;;;6295395;28;20044;-73
2021/08/09 02:52:33;;;;;;;4.00;2.80;;;12.50;99.90;;;;;;6295311;28;20044;-72
2021/08/09 02:55:36;;;;;;;4.20;3.03;;;12.50;99.90;;;;;;6295559;28;20099;-73
2021/08/09 02:58:38;;;;;;;4.00;3.60;;;12.50;99.90;;;;;;6295354;28;20266;-72
2021/08/09 03:01:42;;;;;;;8.60;2.70;;;12.50;99.90;;;;;;6296019;28;20063;-73
2021/08/09 03:04:46;;;;;;;4.80;2.35;;;12.60;99.90;;;;;;6295505;28;20052;-73
2021/08/09 03:07:49;;;;;;;3.15;2.63;;;12.60;99.90;;;;;;6294644;28;20614;-73
2021/08/09 03:10:51;;;;;;;6.22;3.30;;;12.60;99.90;;;;;;6295315;28;20052;-73
2021/08/09 03:13:53;;;;;;;3.83;2.75;;;12.70;99.90;;;;;;6297605;28;20135;-73
2021/08/09 03:16:57;;;;;;;7.32;3.25;;;12.70;99.90;;;;;;6299115;28;20121;-73
2021/08/09 03:19:59;;;;;;;5.85;2.70;;;12.70;99.90;;;;;;6297486;28;20063;-73
2021/08/09 03:23:00;;;;;;;2.47;2.25;;;12.70;99.90;;;;;;6298881;28;20177;-73
2021/08/09 03:26:03;;;;;;;5.80;3.25;;;12.80;99.90;;;;;;6299482;28;20097;-73
2021/08/09 03:29:05;;;;;;;7.30;4.88;;;12.80;99.90;;;;;;6298933;28;20074;-73
2021/08/09 03:32:08;;;;;;;3.30;3.00;;;12.70;99.90;;;;;;6299236;28;20044;-73
2021/08/09 03:35:10;;;;;;;4.05;3.20;;;12.80;99.90;;;;;;6298737;28;20043;-73
2021/08/09 03:38:12;;;;;;;5.63;3.38;;;12.80;99.90;;;;;;6299121;28;20080;-73
2021/08/09 03:41:14;;;;;;;6.10;3.13;;;12.80;99.90;;;;;;6298640;28;20567;-73
2021/08/09 03:44:16;;;;;;;10.77;5.25;;;12.80;99.90;;;;;;6298761;28;20127;-73
2021/08/09 03:47:19;;;;;;;3.67;2.85;;;12.80;99.90;;;;;;6298464;28;20135;-73
2021/08/09 03:50:21;;;;;;;5.25;2.90;;;12.80;99.90;;;;;;6299213;28;20109;-73
2021/08/09 03:53:23;;;;;;;5.45;3.30;;;12.80;99.90;;;;;;6298532;28;20456;-73
2021/08/09 03:56:24;;;;;;;4.10;2.47;;;12.80;99.90;;;;;;6298097;28;20044;-73
2021/08/09 03:59:26;;;;;;;9.45;3.17;;;12.80;99.90;;;;;;6298500;28;20120;-73
2021/08/09 04:02:31;;;;;;;4.30;2.55;;;12.80;99.90;;;;;;6298626;28;20502;-73
2021/08/09 04:05:33;;;;;;;2.90;2.70;;;12.80;99.90;;;;;;6298153;28;20068;-73
2021/08/09 04:08:35;;;;;;;3.70;2.70;;;12.80;99.90;;;;;;6297912;28;20063;-73
2021/08/09 04:11:37;;;;;;;4.93;2.63;;;12.90;99.90;;;;;;6298307;28;20170;-72
2021/08/09 04:14:39;;;;;;;4.40;3.08;;;12.80;99.90;;;;;;6298072;28;20053;-73
2021/08/09 04:17:43;;;;;;;3.25;2.67;;;12.90;99.90;;;;;;6298018;28;20130;-73
2021/08/09 04:20:44;;;;;;;6.47;2.92;;;12.90;99.90;;;;;;6297950;28;20048;-73
2021/08/09 04:23:46;;;;;;;4.20;2.85;;;13.00;99.90;;;;;;6297538;28;20117;-73
2021/08/09 04:26:48;;;;;;;4.22;3.00;;;13.00;99.90;;;;;;6297440;28;20129;-73
2021/08/09 04:29:50;;;;;;;6.00;3.20;;;13.00;99.90;;;;;;6298138;28;20076;-72
2021/08/09 04:32:53;;;;;;;3.60;2.78;;;13.00;99.90;;;;;;6297604;28;20190;-72
2021/08/09 04:35:55;;;;;;;3.83;2.80;;;13.10;99.90;;;;;;6297042;28;20059;-73
2021/08/09 04:38:57;;;;;;;7.40;3.30;;;13.10;99.90;;;;;;6297405;28;20135;-73
2021/08/09 04:41:58;;;;;;;5.85;3.38;;;13.10;99.90;;;;;;6297701;28;20575;-73
2021/08/09 04:45:01;;;;;;;3.63;2.83;;;13.20;99.90;;;;;;6297293;28;20475;-73
2021/08/09 04:48:05;;;;;;;4.50;3.00;;;13.20;99.90;;;;;;6296776;28;20131;-73
2021/08/09 04:51:06;;;;;;;3.38;2.85;;;13.30;99.90;;;;;;6297128;28;20502;-73
2021/08/09 04:54:08;;;;;;;6.65;3.15;;;13.30;99.90;;;;;;6297242;28;20447;-73
2021/08/09 04:57:10;;;;;;;6.28;3.45;;;13.30;99.90;;;;;;6296754;28;20131;-73
2021/08/09 05:00:14;;;;;;;4.45;3.47;;;13.30;99.90;;;;;;6296880;28;20127;-73
2021/08/09 05:03:17;;;;;;;7.38;2.40;;;13.40;99.90;;;;;;6295921;28;20036;-73
2021/08/09 05:06:19;;;;;;;4.53;3.20;;;13.40;99.90;;;;;;6296816;28;20487;-73
2021/08/09 05:09:21;;;;;;;5.03;3.25;;;13.50;99.90;;;;;;6297723;28;20092;-73
2021/08/09 05:12:23;;;;;;;9.73;2.70;;;13.60;99.90;;;;;;6297275;28;20055;-73
2021/08/09 05:15:26;;;;;;;3.08;2.60;;;13.70;99.90;;;;;;6296249;28;20525;-72
2021/08/09 05:18:30;;;;;;;12.52;3.67;;;13.80;99.90;;;;;;6296527;28;20577;-72
2021/08/09 05:21:33;;;;;;;8.13;2.88;;;13.90;99.90;;;;;;6296117;28;20178;-73
2021/08/09 05:24:35;;;;;;;11.93;3.28;;;14.00;99.90;;;;;;6296294;28;20540;-73
2021/08/09 05:27:37;;;;;;;5.30;2.85;;;14.00;99.90;;;;;;6295893;28;20135;-74
2021/08/09 05:30:39;;;;;;;4.15;2.88;;;14.10;99.90;;;;;;6296394;28;20055;-72
2021/08/09 05:33:43;;;;;;;6.18;2.83;;;14.40;99.90;;;;;;6296529;28;20628;-72
2021/08/09 05:36:45;;;;;;;3.55;2.47;;;14.70;99.90;;;;;;6295136;28;20425;-72
2021/08/09 05:39:47;;;;;;;6.78;3.67;;;15.10;99.90;;;;;;6296114;28;20515;-72
2021/08/09 05:42:49;;;;;;;7.93;3.17;;;15.60;99.90;;;;;;6296488;28;20186;-72
2021/08/09 05:45:51;;;;;;;3.00;2.70;;;16.00;99.90;;;;;;6296569;28;20041;-72
2021/08/09 05:48:54;;;;;;;4.65;2.03;;;16.20;99.90;;;;;;6296219;28;20055;-72
2021/08/09 05:51:56;;;;;;;5.32;2.97;;;16.30;99.90;;;;;;6296202;28;20070;-73
2021/08/09 05:55:02;;;;;;;7.57;2.00;;;16.50;99.90;;;;;;6295777;28;20543;-73
2021/08/09 05:58:04;;;;;;;3.70;2.88;;;16.60;99.10;;;;;;6296047;28;20045;-72
2021/08/09 06:01:06;;;;;;;2.53;1.92;;;16.70;98.00;;;;;;6295730;28;20524;-73
2021/08/09 06:04:09;;;;;;;3.95;1.92;;;16.70;97.50;;;;;;6284584;28;20087;-73
2021/08/09 06:07:13;;;;;;;4.47;2.00;;;16.70;97.00;;;;;;6294972;28;20113;-73
2021/08/09 06:10:15;;;;;;;12.15;3.10;;;16.70;96.40;;;;;;6296311;28;20056;-73
2021/08/09 06:13:17;;;;;;;2.40;2.20;;;16.70;96.20;;;;;;6295792;28;20041;-73
2021/08/09 06:16:19;;;;;;;3.38;1.60;;;16.70;96.00;;;;;;6295338;28;20044;-73
2021/08/09 06:19:22;;;;;;;3.00;1.95;;;16.70;96.10;;;;;;6295915;28;20041;-73
2021/08/09 06:22:24;;;;;;;2.95;2.10;;;16.80;95.80;;;;;;6296459;28;20190;-72
2021/08/09 06:25:26;;;;;;;3.22;1.80;;;17.00;95.70;;;;;;6295573;28;20068;-72
2021/08/09 06:28:28;;;;;;;7.85;2.05;;;17.30;95.10;;;;;;6295388;28;20045;-73
2021/08/09 06:31:30;;;;;;;2.10;1.90;;;17.50;94.20;;;;;;6295798;28;20119;-72
2021/08/09 06:34:33;;;;;;;11.00;2.50;;;17.80;92.80;;;;;;6295705;28;20510;-72
2021/08/09 06:37:35;;;;;;;5.47;1.40;;;18.00;92.20;;;;;;6295697;28;20135;-73
2021/08/09 06:40:42;;;;;;;2.95;1.98;;;18.30;91.10;;;;;;6295336;28;20053;-73
2021/08/09 06:43:43;;;;;;;5.00;1.90;;;18.60;90.10;;;;;;6295564;28;20195;-73
2021/08/09 06:46:45;;;;;;;4.05;1.65;;;18.80;88.40;;;;;;6295828;28;20194;-73
2021/08/09 06:49:49;;;;;;;5.57;1.45;;;19.00;87.50;;;;;;6300561;28;20073;-73
2021/08/09 06:52:51;;;;;;;3.13;2.05;;;19.20;86.00;;;;;;6300127;28;20045;-73
2021/08/09 06:55:52;;;;;;;3.95;2.25;;;19.40;84.70;;;;;;6300116;28;20170;-73
2021/08/09 06:58:54;;;;;;;2.97;1.92;;;19.70;83.80;;;;;;6299984;28;20056;-73
2021/08/09 07:01:56;;;;;;;1.83;1.25;;;19.90;81.90;;;;;;6300033;28;20044;-73
2021/08/09 07:04:59;;;;;;;3.10;2.65;;;20.20;80.70;;;;;;6299251;28;20167;-73
2021/08/09 07:08:01;;;;;;;3.90;1.20;;;20.40;79.70;;;;;;6299036;28;20574;-73
2021/08/09 07:11:03;;;;;;;2.97;1.80;;;20.70;77.70;;;;;;6299711;28;20455;-73
2021/08/09 07:14:04;;;;;;;1.40;1.08;;;20.80;75.80;;;;;;6299748;28;20456;-73
2021/08/09 07:17:06;;;;;;;1.60;0.82;;;21.00;74.20;;;;;;6299161;28;20102;-73
2021/08/09 07:20:13;;;;;;;3.75;1.10;;;21.20;73.00;;;;;;6299410;28;20044;-73
2021/08/09 07:23:15;;;;;;;2.72;1.42;;;21.40;70.90;;;;;;6299637;28;20123;-73
2021/08/09 07:26:17;;;;;;;5.65;1.88;;;21.70;69.80;;;;;;6299202;28;20179;-73
2021/08/09 07:29:19;;;;;;;4.35;1.40;;;21.80;69.90;;;;;;6298977;28;20045;-73
2021/08/09 07:32:21;;;;;;;1.60;1.25;;;22.00;68.90;;;;;;6299320;28;20114;-73
2021/08/09 07:35:24;;;;;;;4.20;1.30;;;22.00;66.50;;;;;;6298812;28;20153;-72
2021/08/09 07:38:26;;;;;;;5.30;1.30;;;22.10;66.90;;;;;;6299346;28;20055;-73
2021/08/09 07:41:28;;;;;;;2.28;1.55;;;22.30;66.40;;;;;;6298832;28;20139;-73
2021/08/09 07:44:30;;;;;;;6.38;1.55;;;22.40;65.60;;;;;;6299180;28;20037;-72
2021/08/09 07:47:32;;;;;;;1.75;1.05;;;22.60;65.20;;;;;;6298278;28;20099;-73
2021/08/09 07:50:35;;;;;;;1.27;1.17;;;22.70;65.20;;;;;;6298779;28;20084;-73
2021/08/09 07:53:37;;;;;;;3.80;1.30;;;22.90;64.80;;;;;;6298946;28;20083;-72
2021/08/09 07:56:38;;;;;;;3.53;1.13;;;23.20;64.00;;;;;;6298514;28;20050;-73
2021/08/09 07:59:40;;;;;;;4.68;1.90;;;23.50;63.10;;;;;;6297717;28;20087;-73
2021/08/09 08:02:42;;;;;;;2.20;1.10;;;23.80;62.50;;;;;;6298399;28;20141;-73
2021/08/09 08:05:45;;;;;;;2.83;0.85;;;24.10;61.30;;;;;;6298387;28;20126;-73
2021/08/09 08:08:47;;;;;;;2.40;1.20;;;24.40;60.40;;;;;;6298256;28;20068;-73
2021/08/09 08:11:49;;;;;;;4.15;1.52;;;24.60;59.60;;;;;;6298279;28;20044;-73
2021/08/09 08:14:51;;;;;;;2.83;1.17;;;24.90;58.90;;;;;;6298405;28;20135;-72
2021/08/09 08:17:53;;;;;;;2.63;1.08;;;25.10;57.60;;;;;;6298281;28;20048;-73
2021/08/09 08:20:56;;;;;;;3.15;1.27;;;25.30;56.90;;;;;;6298206;28;20048;-73
2021/08/09 08:23:58;;;;;;;4.70;1.45;;;25.60;56.30;;;;;;6298128;28;20587;-72
2021/08/09 08:27:00;;;;;;;3.80;1.30;;;25.80;54.90;;;;;;6297556;28;20086;-73
2021/08/09 08:30:02;;;;;;;4.05;1.05;;;25.90;54.30;;;;;;6298090;28;20518;-73
2021/08/09 08:33:04;;;;;;;3.58;1.35;;;25.90;54.20;;;;;;6298122;28;20122;-74
2021/08/09 08:36:07;;;;;;;2.28;1.08;;;26.00;54.30;;;;;;6297310;28;20181;-73
2021/08/09 08:39:10;;;;;;;3.50;1.50;;;25.90;54.30;;;;;;6297538;28;20055;-73
2021/08/09 08:42:14;;;;;;;1.17;0.77;;;25.70;54.00;;;;;;6298437;28;20044;-74
2021/08/09 08:45:19;;;;;;;2.28;1.33;;;25.50;53.70;;;;;;6297752;28;20395;-74
2021/08/09 08:48:21;;;;;;;1.85;1.38;;;25.20;54.20;;;;;;6297572;28;20457;-74
2021/08/09 08:51:25;;;;;;;5.53;1.25;;;25.10;54.80;;;;;;6297628;28;20083;-73
2021/08/09 08:54:27;;;;;;;2.35;0.98;;;25.40;55.40;;;;;;6298387;28;20182;-74
2021/08/09 08:57:29;;;;;;;2.80;2.15;;;25.50;54.00;;;;;;6296972;28;20090;-73
2021/08/09 09:00:36;;;;;;;2.58;0.88;;;25.60;53.30;;;;;;6298114;28;20041;-74
2021/08/09 09:03:40;;;;;;;5.07;1.25;;;25.60;53.90;;;;;;6299041;28;20123;-73
2021/08/09 09:06:45;;;;;;;1.17;0.90;;;25.80;53.20;;;;;;6296676;28;20422;-73
2021/08/09 09:09:46;;;;;;;2.15;1.25;;;26.00;53.60;;;;;;6298519;28;20052;-72
2021/08/09 09:13:10;;;;;;;6.00;1.85;;;26.10;52.40;;;;;;6296753;28;20109;-75
2021/08/09 09:16:11;;;;;;;4.75;0.90;;;26.10;52.00;;;;;;6298512;28;20121;-73
2021/08/09 09:19:30;;;;;;;4.55;1.35;;;26.00;52.10;;;;;;6296823;28;20460;-73
2021/08/09 09:22:33;;;;;;;;;;;25.90;52.90;;;;;;6297337;28;20052;-73
2021/08/09 09:25:34;;;;;;;2.70;1.00;;;25.90;53.20;;;;;;6296637;28;20408;-73
2021/08/09 09:28:36;;;;;;;1.90;0.90;;;25.90;53.80;;;;;;6296296;28;20117;-75
2021/08/09 09:31:39;;;;;;;0.75;0.70;;;26.00;51.30;;;;;;6296541;28;20071;-74
2021/08/09 09:34:50;;;;;;;1.33;0.70;;;26.00;51.80;;;;;;6295874;28;20076;-76
2021/08/09 09:37:53;;;;;;;3.03;0.90;;;26.00;51.20;;;;;;6296282;28;20428;-75
2021/08/09 09:41:06;;;;;;;0.70;0.70;;;26.00;50.40;;;;;;6296233;28;20055;-75
2021/08/09 09:44:08;;;;;;;1.70;1.10;;;25.80;50.60;;;;;;6296176;28;20041;-74
2021/08/09 09:47:24;;;;;;;4.38;0.50;;;25.70;51.60;;;;;;6296324;28;20063;-75
2021/08/09 09:50:27;;;;;;;3.17;1.15;;;25.70;51.10;;;;;;6296513;28;20056;-75
2021/08/09 09:53:31;;;;;;;3.78;0.80;;;25.60;51.80;;;;;;6296200;28;20170;-75
2021/08/09 09:56:33;;;;;;;2.47;0.85;;;25.50;51.20;;;;;;6295557;28;20594;-75
2021/08/09 09:59:35;;;;;;;0.98;0.60;;;25.40;52.00;;;;;;6296085;28;20095;-75
2021/08/09 10:02:39;;;;;;;2.00;1.08;;;25.20;52.50;;;;;;6296012;28;20097;-75
2021/08/09 10:05:42;;;;;;;2.13;1.05;;;25.10;52.30;;;;;;6296258;28;20150;-75
2021/08/09 10:08:46;;;;;;;1.80;0.90;;;25.00;52.30;;;;;;6295927;28;20177;-75
2021/08/09 10:11:48;;;;;;;4.05;1.48;;;25.00;52.30;;;;;;6295914;28;20078;-74
2021/08/09 10:14:52;;;;;;;1.23;0.63;;;25.00;53.50;;;;;;6295828;28;20133;-75
2021/08/09 10:17:55;;;;;;;2.65;1.08;;;25.00;52.90;;;;;;6296141;28;20140;-74
2021/08/09 10:20:58;;;;;;;8.13;2.08;;;25.00;53.30;;;;;;6295749;28;20121;-74
2021/08/09 10:24:02;;;;;;;5.05;0.90;;;25.00;53.90;;;;;;6300777;28;20074;-75
2021/08/09 10:27:04;;;;;;;2.85;1.27;;;25.10;53.50;;;;;;6302622;28;20072;-74
2021/08/09 10:30:14;;;;;;;2.45;1.05;;;25.20;53.10;;;;;;6303370;28;20106;-75
2021/08/09 10:33:49;;;;;;;3.53;0.82;;;25.20;53.70;;;;;;6316512;28;20092;-74
2021/08/09 10:37:14;;;;;;;1.88;0.90;;;25.10;53.90;;;;;;6332068;28;20036;-73
2021/08/09 10:40:19;;;;;;;2.92;1.10;;;25.10;54.50;;;;;;6331747;28;20044;-74
2021/08/09 10:43:21;;;;;;;2.92;1.25;;;25.20;54.00;;;;;;6333076;28;20055;-73
2021/08/09 10:46:36;;;;;;;2.65;1.15;;;25.30;54.40;;;;;;6332935;28;20058;-72
2021/08/09 10:49:57;;;;;;;1.90;0.95;;;25.30;53.70;;;;;;6332615;28;20096;-73
2021/08/09 10:52:59;;;;;;;2.70;1.00;;;25.50;54.70;;;;;;6332535;28;20108;-74
2021/08/09 10:56:03;;;;;;;9.25;3.10;;;25.60;53.00;;;;;;6331639;28;20066;-74
2021/08/09 10:59:05;;;;;;;1.73;0.90;;;25.70;52.70;;;;;;6331798;28;20036;-74
2021/08/09 11:02:22;;;;;;;8.32;1.38;;;25.70;53.50;;;;;;6332270;28;20063;-74
2021/08/09 11:05:29;;;;;;;3.83;1.25;;;25.70;53.00;;;;;;6328595;28;20048;-74
2021/08/09 11:08:32;;;;;;;1.20;0.80;;;25.80;53.50;;;;;;6300233;28;20049;-76
2021/08/09 11:12:08;;;;;;;1.95;1.13;;;25.80;54.50;;;;;;6308390;28;20036;-73
2021/08/09 11:15:18;;;;;;;3.90;1.10;;;26.10;52.20;;;;;;6330859;28;20052;-73
2021/08/09 11:18:20;;;;;;;2.38;0.77;;;26.60;52.60;;;;;;6329410;28;20095;-74
2021/08/09 11:21:24;;;;;;;4.70;2.03;;;27.10;51.00;;;;;;6329439;28;20041;-74
2021/08/09 11:24:34;;;;;;;1.35;1.02;;;27.30;49.70;;;;;;6301256;28;20601;-73
2021/08/09 11:27:36;;;;;;;2.45;0.80;;;27.20;49.70;;;;;;6300819;28;20789;-76
2021/08/09 11:30:49;;;;;;;5.65;1.27;;;27.20;49.40;;;;;;6300133;28;20053;-76
2021/08/09 11:33:51;;;;;;;4.72;0.93;;;27.40;46.80;;;;;;6298557;28;20456;-76
2021/08/09 11:37:04;;;;;;;2.08;0.60;;;27.30;46.80;;;;;;6298497;28;20083;-74
2021/08/09 11:40:07;;;;;;;2.55;1.20;;;27.40;46.80;;;;;;6299295;28;20079;-76
2021/08/09 11:43:10;;;;;;;1.83;1.23;;;27.60;46.00;;;;;;6299111;28;20186;-75
2021/08/09 11:46:14;;;;;;;3.13;0.73;;;27.60;46.50;;;;;;6299516;28;20048;-74
2021/08/09 11:49:16;;;;;;;1.63;0.77;;;27.80;46.20;;;;;;6298585;28;20529;-73
2021/08/09 11:52:22;;;;;;;2.97;1.80;;;27.80;46.00;;;;;;6298461;28;20580;-73
2021/08/09 11:55:24;;;;;;;1.95;0.90;;;27.70;46.70;;;;;;6298333;28;20166;-73
2021/08/09 11:58:30;;;;;;;1.88;1.00;;;27.50;47.00;;;;;;6298717;28;20157;-74
2021/08/09 12:01:36;;;;;;;5.70;1.38;;;27.30;46.30;;;;;;6298353;28;20055;-73
2021/08/09 12:04:45;;;;;;;2.13;1.02;;;27.10;46.60;;;;;;6298380;28;20135;-73
2021/08/09 12:07:58;;;;;;;2.97;1.02;;;27.00;47.90;;;;;;6297877;28;20048;-73
2021/08/09 12:11:10;;;;;;;1.83;1.08;;;27.00;47.50;;;;;;6297980;28;20426;-73
2021/08/09 12:14:14;;;;;;;1.33;0.90;;;26.90;47.40;;;;;;6298626;28;20059;-74
2021/08/09 12:17:18;;;;;;;2.25;1.40;;;26.60;48.30;;;;;;6297671;28;20505;-73
2021/08/09 12:20:21;;;;;;;3.50;1.02;;;26.40;49.60;;;;;;6297924;28;20049;-74
2021/08/09 12:23:26;;;;;;;3.20;0.88;;;26.20;50.60;;;;;;6298162;28;20124;-73
2021/08/09 12:26:31;;;;;;;1.92;0.68;;;26.10;50.60;;;;;;6298083;28;20140;-73
2021/08/09 12:29:33;;;;;;;1.85;1.40;;;26.20;50.90;;;;;;6297638;28;20475;-73
2021/08/09 12:32:37;;;;;;;5.80;0.98;;;26.70;50.20;;;;;;6297452;28;20537;-74
2021/08/09 12:35:40;;;;;;;2.65;1.90;;;27.00;49.10;;;;;;6297280;28;20109;-74
2021/08/09 12:38:44;;;;;;;5.78;0.90;;;27.50;47.70;;;;;;6297430;28;20178;-73
2021/08/09 12:41:45;;;;;;;3.13;1.10;;;27.70;47.40;;;;;;6298167;28;20139;-74
2021/08/09 12:44:50;;;;;;;4.07;1.27;;;28.00;47.60;;;;;;6296867;28;20458;-74
2021/08/09 12:47:51;;;;;;;4.18;1.00;;;28.30;47.40;;;;;;6296878;28;20109;-74
2021/08/09 12:50:54;;;;;;;2.15;1.13;;;28.60;45.20;;;;;;6297268;28;20044;-73
2021/08/09 12:53:57;;;;;;;4.38;1.55;;;28.70;44.50;;;;;;6297360;28;20102;-74
2021/08/09 12:57:00;;;;;;;2.70;0.80;;;28.80;44.80;;;;;;6285533;28;20518;-73
2021/08/09 13:00:02;;;;;;;1.58;0.80;;;28.80;44.80;;;;;;6272311;28;20152;-74
2021/08/09 13:03:04;;;;;;;1.27;0.80;;;28.80;45.40;;;;;;6271039;28;20128;-73
2021/08/09 13:06:06;;;;;;;3.60;1.05;;;28.90;46.00;;;;;;6271078;28;20128;-74
2021/08/09 13:09:09;;;;;;;6.82;1.52;;;29.00;46.00;;;;;;6270672;28;20056;-74
2021/08/09 13:12:11;;;;;;;2.00;0.82;;;29.20;44.20;;;;;;6271060;28;20076;-74
2021/08/09 13:15:13;;;;;;;5.00;1.23;;;29.50;43.30;;;;;;6294669;28;20044;-74
2021/08/09 13:18:15;;;;;;;1.98;0.95;;;29.50;42.50;;;;;;6296051;28;20044;-73
2021/08/09 13:21:17;;;;;;;2.55;1.17;;;29.40;43.40;;;;;;6295867;28;20245;-74
2021/08/09 13:24:20;;;;;;;3.15;0.80;;;29.20;42.80;;;;;;6295365;28;20530;-74
2021/08/09 13:27:22;;;;;;;2.17;1.02;;;29.10;44.00;;;;;;6295256;28;20084;-74
2021/08/09 13:30:24;;;;;;;2.67;0.90;;;28.90;44.10;;;;;;6295724;28;20529;-74
2021/08/09 13:33:26;;;;;;;4.80;1.83;;;29.00;44.10;;;;;;6295443;28;20044;-75
2021/08/09 13:36:27;;;;;;;0.75;0.50;;;29.00;44.90;;;;;;6294832;28;20143;-75
2021/08/09 13:39:31;;;;;;;2.42;1.27;;;28.90;43.80;;;;;;6294874;28;20071;-74
2021/08/09 13:42:32;;;;;;;2.00;0.93;;;28.90;44.40;;;;;;6295582;28;20583;-75
2021/08/09 13:45:37;;;;;;;2.95;0.82;;;28.80;42.40;;;;;;6295344;28;20144;-74
2021/08/09 13:48:41;;;;;;;2.92;1.23;;;28.70;44.10;;;;;;6295288;28;20075;-74
2021/08/09 13:51:43;;;;;;;1.75;0.70;;;28.90;43.90;;;;;;6294580;28;20583;-74
2021/08/09 13:54:47;;;;;;;2.42;0.70;;;29.20;44.50;;;;;;6295141;28;20135;-75
2021/08/09 13:57:49;;;;;;;1.13;0.85;;;29.30;43.30;;;;;;6289302;28;20072;-74
2021/08/09 14:00:51;;;;;;;6.07;1.35;;;29.40;43.50;;;;;;6271760;28;20045;-74
2021/08/09 14:03:52;;;;;;;2.50;0.75;;;29.50;43.30;;;;;;6270038;28;20072;-75
2021/08/09 14:06:54;;;;;;;1.20;0.70;;;29.60;42.60;;;;;;6269615;28;20061;-75
2021/08/09 14:09:57;;;;;;;2.00;0.60;;;29.60;41.20;;;;;;6270477;28;20140;-74
2021/08/09 14:12:59;;;;;;;3.97;1.10;;;29.40;41.50;;;;;;6275218;28;20178;-75
2021/08/09 14:16:03;;;;;;;1.33;0.80;;;29.20;42.00;;;;;;6294817;28;20123;-75
2021/08/09 14:19:05;;;;;;;2.03;0.80;;;29.00;42.60;;;;;;6294570;28;20517;-75
2021/08/09 14:22:07;;;;;;;2.05;0.75;;;29.00;43.00;;;;;;6295373;28;20660;-75
2021/08/09 14:25:11;;;;;;;3.45;1.38;;;29.20;43.60;;;;;;6294645;28;20044;-75
2021/08/09 14:28:13;;;;;;;1.63;1.20;;;29.50;41.30;;;;;;6294618;28;20052;-75
2021/08/09 14:31:14;;;;;;;3.40;1.23;;;29.50;41.80;;;;;;6294583;28;20518;-75
2021/08/09 14:34:16;;;;;;;4.03;0.90;;;29.40;42.10;;;;;;6294684;28;20546;-75
2021/08/09 14:37:18;;;;;;;1.90;0.73;;;29.20;42.20;;;;;;6294565;28;20051;-75
2021/08/09 14:40:21;;;;;;;6.50;1.45;;;29.00;42.90;;;;;;6294555;28;20068;-75
2021/08/09 14:43:23;;;;;;;4.13;1.00;;;28.70;44.30;;;;;;6294611;28;20117;-75
2021/08/09 14:46:25;;;;;;;1.65;0.60;;;28.50;44.30;;;;;;6294684;28;20138;-74
2021/08/09 14:49:27;;;;;;;2.33;0.55;;;28.20;44.50;;;;;;6294873;28;20589;-75
2021/08/09 14:52:29;;;;;;;3.88;1.33;;;28.00;44.70;;;;;;6293879;28;20068;-74
2021/08/09 14:55:32;;;;;;;1.35;0.80;;;27.70;45.30;;;;;;6293930;28;20124;-75
2021/08/09 14:58:34;;;;;;;2.60;0.93;;;27.40;45.50;;;;;;6290747;28;20148;-75
2021/08/09 15:01:37;;;;;;;1.20;1.00;;;27.20;45.90;;;;;;6268832;28;20144;-75
2021/08/09 15:04:39;;;;;;;1.63;1.27;;;27.00;45.90;;;;;;6268869;28;20697;-75
2021/08/09 15:07:40;;;;;;;4.22;1.77;;;26.80;46.20;;;;;;6269667;28;20076;-75
2021/08/09 15:10:44;;;;;;;1.33;1.02;;;26.80;46.80;;;;;;6274117;28;20099;-75
2021/08/09 15:13:46;;;;;;;2.40;0.80;;;26.70;47.30;;;;;;6286477;28;20527;-75
2021/08/09 15:16:48;;;;;;;4.80;1.00;;;26.60;47.30;;;;;;6298871;28;20109;-75
2021/08/09 15:19:50;;;;;;;5.70;1.40;;;26.50;47.90;;;;;;6298641;28;20062;-75
2021/08/09 15:22:51;;;;;;;3.22;0.60;;;26.60;47.90;;;;;;6298407;28;20048;-75
2021/08/09 15:25:55;;;;;;;2.42;1.30;;;26.70;48.00;;;;;;6298541;28;20044;-75
2021/08/09 15:28:57;;;;;;;1.77;0.90;;;26.60;47.10;;;;;;6298450;28;20068;-74
2021/08/09 15:31:58;;;;;;;2.42;1.00;;;26.60;47.50;;;;;;6298648;28;20078;-74
2021/08/09 15:35:00;;;;;;;1.10;0.80;;;26.60;48.10;;;;;;6298132;28;20040;-74
2021/08/09 15:38:02;;;;;;;4.78;1.75;;;26.70;48.50;;;;;;6299044;28;20171;-76
2021/08/09 15:41:05;;;;;;;6.10;1.02;;;26.90;46.90;;;;;;6298463;28;20208;-75
2021/08/09 15:44:07;;;;;;;5.25;1.35;;;27.20;47.10;;;;;;6298656;28;20055;-75
2021/08/09 15:47:09;;;;;;;2.08;1.40;;;27.50;46.00;;;;;;6298246;28;20072;-76
2021/08/09 15:50:12;;;;;;;3.45;1.67;;;27.60;45.90;;;;;;6298563;28;20080;-76
2021/08/09 15:53:15;;;;;;;4.13;1.80;;;27.70;45.10;;;;;;6298348;28;20136;-76
2021/08/09 15:56:18;;;;;;;4.18;1.33;;;27.70;45.50;;;;;;6297796;28;20087;-76